sensor_id;sensor_type;location;lat;lon;timestamp;temperature;humidity
51739;DHT22;37815;52.692;6.226;2023-08-31T00:03:18;17.90;93.70
51739;DHT22;37815;52.692;6.226;2023-08-31T00:08:19;17.90;93.70
51739;DHT22;37815;52.692;6.226;2023-08-31T00:13:22;17.90;93.70
51739;DHT22;37815;52.692;6.226;2023-08-31T00:18:23;17.90;93.80
51739;DHT22;37815;52.692;6.226;2023-08-31T00:23:25;17.90;93.80
51739;DHT22;37815;52.692;6.226;2023-08-31T00:28:25;17.90;93.80
51739;DHT22;37815;52.692;6.226;2023-08-31T00:33:27;17.80;93.80
51739;DHT22;37815;52.692;6.226;2023-08-31T00:38:28;17.80;93.90
51739;DHT22;37815;52.692;6.226;2023-08-31T00:43:29;17.80;93.90
51739;DHT22;37815;52.692;6.226;2023-08-31T00:48:30;17.80;93.90
51739;DHT22;37815;52.692;6.226;2023-08-31T00:53:30;17.80;93.90
51739;DHT22;37815;52.692;6.226;2023-08-31T00:58:32;17.80;93.90
51739;DHT22;37815;52.692;6.226;2023-08-31T01:03:40;17.80;93.90
51739;DHT22;37815;52.692;6.226;2023-08-31T01:08:56;17.70;93.80
51739;DHT22;37815;52.692;6.226;2023-08-31T01:14:23;17.70;93.90
51739;DHT22;37815;52.692;6.226;2023-08-31T01:19:48;17.70;93.90
51739;DHT22;37815;52.692;6.226;2023-08-31T01:24:49;17.70;93.90
51739;DHT22;37815;52.692;6.226;2023-08-31T01:29:50;17.70;94.00
51739;DHT22;37815;52.692;6.226;2023-08-31T01:34:52;17.70;94.00
51739;DHT22;37815;52.692;6.226;2023-08-31T01:39:56;17.70;94.00
51739;DHT22;37815;52.692;6.226;2023-08-31T01:44:59;17.60;94.00
51739;DHT22;37815;52.692;6.226;2023-08-31T01:50:00;17.70;94.00
51739;DHT22;37815;52.692;6.226;2023-08-31T01:55:01;17.60;93.90
51739;DHT22;37815;52.692;6.226;2023-08-31T02:00:01;17.60;93.90
51739;DHT22;37815;52.692;6.226;2023-08-31T02:05:04;17.60;93.90
51739;DHT22;37815;52.692;6.226;2023-08-31T02:10:05;17.60;93.90
51739;DHT22;37815;52.692;6.226;2023-08-31T02:15:07;17.60;93.90
51739;DHT22;37815;52.692;6.226;2023-08-31T02:20:08;17.60;93.80
51739;DHT22;37815;52.692;6.226;2023-08-31T02:25:09;17.50;93.80
51739;DHT22;37815;52.692;6.226;2023-08-31T02:30:09;17.50;93.70
51739;DHT22;37815;52.692;6.226;2023-08-31T02:35:10;17.50;93.70
51739;DHT22;37815;52.692;6.226;2023-08-31T02:40:12;17.50;93.70
51739;DHT22;37815;52.692;6.226;2023-08-31T02:45:14;17.50;93.70
51739;DHT22;37815;52.692;6.226;2023-08-31T02:50:16;17.40;93.60
51739;DHT22;37815;52.692;6.226;2023-08-31T02:55:17;17.40;93.60
51739;DHT22;37815;52.692;6.226;2023-08-31T03:00:18;17.40;93.60
51739;DHT22;37815;52.692;6.226;2023-08-31T03:05:21;17.40;93.60
51739;DHT22;37815;52.692;6.226;2023-08-31T03:10:22;17.40;93.60
51739;DHT22;37815;52.692;6.226;2023-08-31T03:15:23;17.40;93.60
51739;DHT22;37815;52.692;6.226;2023-08-31T03:20:24;17.40;93.60
51739;DHT22;37815;52.692;6.226;2023-08-31T03:25:24;17.40;93.60
51739;DHT22;37815;52.692;6.226;2023-08-31T03:30:25;17.30;93.60
51739;DHT22;37815;52.692;6.226;2023-08-31T03:35:25;17.30;93.60
51739;DHT22;37815;52.692;6.226;2023-08-31T03:40:30;17.30;93.60
51739;DHT22;37815;52.692;6.226;2023-08-31T03:45:31;17.30;93.60
51739;DHT22;37815;52.692;6.226;2023-08-31T03:50:32;17.30;93.60
51739;DHT22;37815;52.692;6.226;2023-08-31T03:55:32;17.30;93.60
51739;DHT22;37815;52.692;6.226;2023-08-31T04:00:33;17.20;93.60
51739;DHT22;37815;52.692;6.226;2023-08-31T04:05:34;17.30;93.60
51739;DHT22;37815;52.692;6.226;2023-08-31T04:10:36;17.20;93.60
51739;DHT22;37815;52.692;6.226;2023-08-31T04:15:37;17.20;93.60
51739;DHT22;37815;52.692;6.226;2023-08-31T04:20:37;17.20;93.60
51739;DHT22;37815;52.692;6.226;2023-08-31T04:25:38;17.20;93.60
51739;DHT22;37815;52.692;6.226;2023-08-31T04:30:41;17.20;93.60
51739;DHT22;37815;52.692;6.226;2023-08-31T04:35:42;17.20;93.90
51739;DHT22;37815;52.692;6.226;2023-08-31T04:40:43;17.20;93.60
51739;DHT22;37815;52.692;6.226;2023-08-31T04:45:43;17.20;93.60
51739;DHT22;37815;52.692;6.226;2023-08-31T04:50:44;17.10;93.60
51739;DHT22;37815;52.692;6.226;2023-08-31T04:55:45;17.10;93.60
51739;DHT22;37815;52.692;6.226;2023-08-31T05:00:45;17.10;93.60
51739;DHT22;37815;52.692;6.226;2023-08-31T05:05:47;17.10;93.60
51739;DHT22;37815;52.692;6.226;2023-08-31T05:10:48;17.10;93.60
51739;DHT22;37815;52.692;6.226;2023-08-31T05:15:48;17.10;93.60
51739;DHT22;37815;52.692;6.226;2023-08-31T05:20:49;17.10;93.60
51739;DHT22;37815;52.692;6.226;2023-08-31T05:25:49;17.10;93.60
51739;DHT22;37815;52.692;6.226;2023-08-31T05:30:52;17.10;93.60
51739;DHT22;37815;52.692;6.226;2023-08-31T05:35:53;17.10;93.70
51739;DHT22;37815;52.692;6.226;2023-08-31T05:40:53;17.10;93.60
51739;DHT22;37815;52.692;6.226;2023-08-31T05:45:54;17.10;93.60
51739;DHT22;37815;52.692;6.226;2023-08-31T05:50:54;17.10;93.70
51739;DHT22;37815;52.692;6.226;2023-08-31T05:55:58;17.10;93.60
51739;DHT22;37815;52.692;6.226;2023-08-31T06:01:04;17.10;93.70
51739;DHT22;37815;52.692;6.226;2023-08-31T06:06:06;17.10;93.60
51739;DHT22;37815;52.692;6.226;2023-08-31T06:11:07;17.20;93.70
51739;DHT22;37815;52.692;6.226;2023-08-31T06:16:08;17.20;93.70
51739;DHT22;37815;52.692;6.226;2023-08-31T06:21:09;17.20;93.70
51739;DHT22;37815;52.692;6.226;2023-08-31T06:26:09;17.30;93.80
51739;DHT22;37815;52.692;6.226;2023-08-31T06:31:10;17.10;93.80
51739;DHT22;37815;52.692;6.226;2023-08-31T06:36:11;17.10;93.80
51739;DHT22;37815;52.692;6.226;2023-08-31T06:41:12;17.20;93.80
51739;DHT22;37815;52.692;6.226;2023-08-31T06:46:12;17.20;93.80
51739;DHT22;37815;52.692;6.226;2023-08-31T06:51:13;17.20;93.80
51739;DHT22;37815;52.692;6.226;2023-08-31T06:56:13;17.20;93.80
51739;DHT22;37815;52.692;6.226;2023-08-31T07:01:14;17.20;93.90
51739;DHT22;37815;52.692;6.226;2023-08-31T07:06:15;17.20;93.90
51739;DHT22;37815;52.692;6.226;2023-08-31T07:11:17;17.20;93.80
51739;DHT22;37815;52.692;6.226;2023-08-31T07:16:18;17.20;93.80
51739;DHT22;37815;52.692;6.226;2023-08-31T07:21:18;17.30;93.90
51739;DHT22;37815;52.692;6.226;2023-08-31T07:26:20;17.30;93.90
51739;DHT22;37815;52.692;6.226;2023-08-31T07:31:21;17.30;93.90
51739;DHT22;37815;52.692;6.226;2023-08-31T07:36:22;17.30;94.00
51739;DHT22;37815;52.692;6.226;2023-08-31T07:41:22;17.40;94.00
51739;DHT22;37815;52.692;6.226;2023-08-31T07:46:23;17.40;94.00
51739;DHT22;37815;52.692;6.226;2023-08-31T07:51:24;17.50;94.00
51739;DHT22;37815;52.692;6.226;2023-08-31T07:56:26;17.60;94.00
51739;DHT22;37815;52.692;6.226;2023-08-31T08:01:27;17.60;93.90
51739;DHT22;37815;52.692;6.226;2023-08-31T08:06:27;17.60;93.90
51739;DHT22;37815;52.692;6.226;2023-08-31T08:11:28;17.60;93.90
51739;DHT22;37815;52.692;6.226;2023-08-31T08:16:29;17.60;93.90
51739;DHT22;37815;52.692;6.226;2023-08-31T08:21:29;17.70;93.90
51739;DHT22;37815;52.692;6.226;2023-08-31T08:26:30;17.70;94.00
51739;DHT22;37815;52.692;6.226;2023-08-31T08:31:30;18.10;93.90
51739;DHT22;37815;52.692;6.226;2023-08-31T08:36:31;17.70;93.90
51739;DHT22;37815;52.692;6.226;2023-08-31T08:41:33;17.80;93.90
51739;DHT22;37815;52.692;6.226;2023-08-31T08:46:33;17.80;93.90
51739;DHT22;37815;52.692;6.226;2023-08-31T08:51:35;17.80;93.90
51739;DHT22;37815;52.692;6.226;2023-08-31T08:56:36;17.80;93.90
51739;DHT22;37815;52.692;6.226;2023-08-31T09:01:36;17.80;94.00
51739;DHT22;37815;52.692;6.226;2023-08-31T09:06:38;17.90;94.00
51739;DHT22;37815;52.692;6.226;2023-08-31T09:11:39;17.90;94.30
51739;DHT22;37815;52.692;6.226;2023-08-31T09:16:44;17.90;94.00
51739;DHT22;37815;52.692;6.226;2023-08-31T09:21:46;17.90;94.00
51739;DHT22;37815;52.692;6.226;2023-08-31T09:26:52;18.00;94.00
51739;DHT22;37815;52.692;6.226;2023-08-31T09:31:53;18.00;94.00
51739;DHT22;37815;52.692;6.226;2023-08-31T09:37:05;18.00;93.90
51739;DHT22;37815;52.692;6.226;2023-08-31T09:42:06;18.10;94.00
51739;DHT22;37815;52.692;6.226;2023-08-31T09:47:08;18.10;93.90
51739;DHT22;37815;52.692;6.226;2023-08-31T09:52:09;18.10;94.60
51739;DHT22;37815;52.692;6.226;2023-08-31T09:57:11;18.20;95.20
51739;DHT22;37815;52.692;6.226;2023-08-31T10:02:13;18.10;95.20
51739;DHT22;37815;52.692;6.226;2023-08-31T10:07:16;18.10;95.30
51739;DHT22;37815;52.692;6.226;2023-08-31T10:12:18;18.00;95.20
51739;DHT22;37815;52.692;6.226;2023-08-31T10:17:20;18.10;95.30
51739;DHT22;37815;52.692;6.226;2023-08-31T10:22:22;18.10;95.50
51739;DHT22;37815;52.692;6.226;2023-08-31T10:27:22;18.20;95.50
51739;DHT22;37815;52.692;6.226;2023-08-31T10:32:23;18.20;95.80
51739;DHT22;37815;52.692;6.226;2023-08-31T10:37:27;18.30;95.50
51739;DHT22;37815;52.692;6.226;2023-08-31T10:42:28;18.40;95.60
51739;DHT22;37815;52.692;6.226;2023-08-31T10:47:38;18.40;95.50
51739;DHT22;37815;52.692;6.226;2023-08-31T10:52:43;18.50;95.30
51739;DHT22;37815;52.692;6.226;2023-08-31T10:57:44;18.60;95.20
51739;DHT22;37815;52.692;6.226;2023-08-31T11:02:46;18.70;95.30
51739;DHT22;37815;52.692;6.226;2023-08-31T11:07:51;18.70;94.90
51739;DHT22;37815;52.692;6.226;2023-08-31T11:12:56;18.60;94.80
51739;DHT22;37815;52.692;6.226;2023-08-31T11:17:58;18.60;95.10
51739;DHT22;37815;52.692;6.226;2023-08-31T11:22:59;18.40;95.10
51739;DHT22;37815;52.692;6.226;2023-08-31T11:28:02;18.40;95.20
51739;DHT22;37815;52.692;6.226;2023-08-31T11:33:07;18.50;95.40
51739;DHT22;37815;52.692;6.226;2023-08-31T11:38:08;18.40;95.30
51739;DHT22;37815;52.692;6.226;2023-08-31T11:43:08;18.40;95.20
51739;DHT22;37815;52.692;6.226;2023-08-31T11:48:09;18.50;95.00
51739;DHT22;37815;52.692;6.226;2023-08-31T11:53:10;18.50;95.00
51739;DHT22;37815;52.692;6.226;2023-08-31T11:58:11;18.60;95.00
51739;DHT22;37815;52.692;6.226;2023-08-31T12:03:11;18.70;95.20
51739;DHT22;37815;52.692;6.226;2023-08-31T12:08:13;18.80;95.50
51739;DHT22;37815;52.692;6.226;2023-08-31T12:13:14;18.70;95.80
51739;DHT22;37815;52.692;6.226;2023-08-31T12:18:15;18.60;95.60
51739;DHT22;37815;52.692;6.226;2023-08-31T12:23:15;18.60;95.70
51739;DHT22;37815;52.692;6.226;2023-08-31T12:28:17;18.60;95.70
51739;DHT22;37815;52.692;6.226;2023-08-31T12:33:19;18.60;95.70
51739;DHT22;37815;52.692;6.226;2023-08-31T12:38:19;18.60;95.70
51739;DHT22;37815;52.692;6.226;2023-08-31T12:43:20;18.70;95.60
51739;DHT22;37815;52.692;6.226;2023-08-31T12:48:21;18.80;95.60
51739;DHT22;37815;52.692;6.226;2023-08-31T12:53:22;18.80;95.70
51739;DHT22;37815;52.692;6.226;2023-08-31T12:58:23;18.80;95.90
51739;DHT22;37815;52.692;6.226;2023-08-31T13:03:24;18.90;95.80
51739;DHT22;37815;52.692;6.226;2023-08-31T13:08:25;18.90;96.00
51739;DHT22;37815;52.692;6.226;2023-08-31T13:13:25;18.90;96.00
51739;DHT22;37815;52.692;6.226;2023-08-31T13:18:26;19.00;96.10
51739;DHT22;37815;52.692;6.226;2023-08-31T13:23:27;19.10;97.00
51739;DHT22;37815;52.692;6.226;2023-08-31T13:28:27;19.40;95.70
51739;DHT22;37815;52.692;6.226;2023-08-31T13:33:28;19.70;96.40
51739;DHT22;37815;52.692;6.226;2023-08-31T13:38:29;19.70;95.00
51739;DHT22;37815;52.692;6.226;2023-08-31T13:43:30;19.80;94.20
51739;DHT22;37815;52.692;6.226;2023-08-31T13:48:30;19.90;94.70
51739;DHT22;37815;52.692;6.226;2023-08-31T13:53:31;20.00;94.90
51739;DHT22;37815;52.692;6.226;2023-08-31T13:58:32;19.70;94.30
51739;DHT22;37815;52.692;6.226;2023-08-31T14:03:32;19.70;94.50
51739;DHT22;37815;52.692;6.226;2023-08-31T14:08:33;19.70;94.20
51739;DHT22;37815;52.692;6.226;2023-08-31T14:13:34;19.70;94.00
51739;DHT22;37815;52.692;6.226;2023-08-31T14:18:34;19.70;94.10
51739;DHT22;37815;52.692;6.226;2023-08-31T14:23:35;19.80;94.20
51739;DHT22;37815;52.692;6.226;2023-08-31T14:28:35;19.90;93.50
51739;DHT22;37815;52.692;6.226;2023-08-31T14:33:36;20.10;93.70
51739;DHT22;37815;52.692;6.226;2023-08-31T14:38:37;20.30;92.70
51739;DHT22;37815;52.692;6.226;2023-08-31T14:43:38;20.40;92.40
51739;DHT22;37815;52.692;6.226;2023-08-31T14:48:38;20.50;92.70
51739;DHT22;37815;52.692;6.226;2023-08-31T14:53:46;20.80;92.70
51739;DHT22;37815;52.692;6.226;2023-08-31T14:58:47;20.70;92.10
51739;DHT22;37815;52.692;6.226;2023-08-31T15:03:47;20.70;92.30
51739;DHT22;37815;52.692;6.226;2023-08-31T15:08:48;20.60;91.40
51739;DHT22;37815;52.692;6.226;2023-08-31T15:13:48;20.60;91.50
51739;DHT22;37815;52.692;6.226;2023-08-31T15:18:49;20.50;91.50
51739;DHT22;37815;52.692;6.226;2023-08-31T15:23:50;20.50;91.10
51739;DHT22;37815;52.692;6.226;2023-08-31T15:28:51;20.80;90.80
51739;DHT22;37815;52.692;6.226;2023-08-31T15:33:53;20.80;90.90
51739;DHT22;37815;52.692;6.226;2023-08-31T15:38:53;20.70;90.90
51739;DHT22;37815;52.692;6.226;2023-08-31T15:43:54;20.60;91.00
51739;DHT22;37815;52.692;6.226;2023-08-31T15:48:55;20.40;91.40
51739;DHT22;37815;52.692;6.226;2023-08-31T15:53:55;20.30;91.20
51739;DHT22;37815;52.692;6.226;2023-08-31T15:58:56;20.30;91.70
51739;DHT22;37815;52.692;6.226;2023-08-31T16:03:58;20.30;91.90
51739;DHT22;37815;52.692;6.226;2023-08-31T16:08:59;20.40;92.20
51739;DHT22;37815;52.692;6.226;2023-08-31T16:14:00;20.40;92.40
51739;DHT22;37815;52.692;6.226;2023-08-31T16:19:01;20.40;92.40
51739;DHT22;37815;52.692;6.226;2023-08-31T16:24:01;20.40;92.50
51739;DHT22;37815;52.692;6.226;2023-08-31T16:29:02;20.40;92.60
51739;DHT22;37815;52.692;6.226;2023-08-31T16:34:04;20.40;92.60
51739;DHT22;37815;52.692;6.226;2023-08-31T16:39:06;20.40;92.80
51739;DHT22;37815;52.692;6.226;2023-08-31T16:44:07;20.40;92.80
51739;DHT22;37815;52.692;6.226;2023-08-31T16:49:08;20.40;92.80
51739;DHT22;37815;52.692;6.226;2023-08-31T16:54:08;20.30;92.70
51739;DHT22;37815;52.692;6.226;2023-08-31T16:59:09;20.40;92.90
51739;DHT22;37815;52.692;6.226;2023-08-31T17:04:10;20.30;93.10
51739;DHT22;37815;52.692;6.226;2023-08-31T17:09:11;20.30;93.10
51739;DHT22;37815;52.692;6.226;2023-08-31T17:14:11;20.20;93.20
51739;DHT22;37815;52.692;6.226;2023-08-31T17:19:15;20.20;93.20
51739;DHT22;37815;52.692;6.226;2023-08-31T17:24:15;20.20;93.30
51739;DHT22;37815;52.692;6.226;2023-08-31T17:29:16;20.10;93.40
51739;DHT22;37815;52.692;6.226;2023-08-31T17:34:17;20.10;93.30
51739;DHT22;37815;52.692;6.226;2023-08-31T17:39:19;20.20;93.40
51739;DHT22;37815;52.692;6.226;2023-08-31T17:44:20;20.10;93.50
51739;DHT22;37815;52.692;6.226;2023-08-31T17:49:25;20.10;93.50
51739;DHT22;37815;52.692;6.226;2023-08-31T17:54:25;20.10;93.50
51739;DHT22;37815;52.692;6.226;2023-08-31T17:59:27;20.00;93.50
51739;DHT22;37815;52.692;6.226;2023-08-31T18:04:27;20.00;93.50
51739;DHT22;37815;52.692;6.226;2023-08-31T18:09:28;20.00;93.60
51739;DHT22;37815;52.692;6.226;2023-08-31T18:14:32;20.00;93.70
51739;DHT22;37815;52.692;6.226;2023-08-31T18:19:34;20.10;93.70
51739;DHT22;37815;52.692;6.226;2023-08-31T18:24:35;20.00;93.70
51739;DHT22;37815;52.692;6.226;2023-08-31T18:29:37;19.90;93.70
51739;DHT22;37815;52.692;6.226;2023-08-31T18:34:38;19.90;93.70
51739;DHT22;37815;52.692;6.226;2023-08-31T18:39:40;19.80;93.70
51739;DHT22;37815;52.692;6.226;2023-08-31T18:44:40;19.70;93.60
51739;DHT22;37815;52.692;6.226;2023-08-31T18:49:41;19.80;93.70
51739;DHT22;37815;52.692;6.226;2023-08-31T18:54:42;19.70;93.90
51739;DHT22;37815;52.692;6.226;2023-08-31T18:59:42;19.70;93.70
51739;DHT22;37815;52.692;6.226;2023-08-31T19:04:43;19.60;93.70
51739;DHT22;37815;52.692;6.226;2023-08-31T19:09:43;19.60;93.70
51739;DHT22;37815;52.692;6.226;2023-08-31T19:14:44;19.60;93.60
51739;DHT22;37815;52.692;6.226;2023-08-31T19:19:45;19.50;93.60
51739;DHT22;37815;52.692;6.226;2023-08-31T19:24:46;19.50;93.60
51739;DHT22;37815;52.692;6.226;2023-08-31T19:29:46;19.50;93.50
51739;DHT22;37815;52.692;6.226;2023-08-31T19:34:47;19.40;93.50
51739;DHT22;37815;52.692;6.226;2023-08-31T19:39:48;19.40;93.50
51739;DHT22;37815;52.692;6.226;2023-08-31T19:44:48;19.40;93.40
51739;DHT22;37815;52.692;6.226;2023-08-31T19:49:49;19.30;93.40
51739;DHT22;37815;52.692;6.226;2023-08-31T19:54:53;19.30;93.30
51739;DHT22;37815;52.692;6.226;2023-08-31T19:59:53;19.30;93.30
51739;DHT22;37815;52.692;6.226;2023-08-31T20:04:54;19.20;93.30
51739;DHT22;37815;52.692;6.226;2023-08-31T20:09:55;19.20;93.30
51739;DHT22;37815;52.692;6.226;2023-08-31T20:14:56;19.20;93.20
51739;DHT22;37815;52.692;6.226;2023-08-31T20:19:56;19.20;93.20
51739;DHT22;37815;52.692;6.226;2023-08-31T20:24:57;19.10;93.10
51739;DHT22;37815;52.692;6.226;2023-08-31T20:29:58;19.10;93.10
51739;DHT22;37815;52.692;6.226;2023-08-31T20:34:58;19.10;93.10
51739;DHT22;37815;52.692;6.226;2023-08-31T20:39:59;19.00;93.00
51739;DHT22;37815;52.692;6.226;2023-08-31T20:45:01;19.00;93.00
51739;DHT22;37815;52.692;6.226;2023-08-31T20:50:01;19.00;93.00
51739;DHT22;37815;52.692;6.226;2023-08-31T20:55:05;18.90;93.00
51739;DHT22;37815;52.692;6.226;2023-08-31T21:00:08;18.90;93.00
51739;DHT22;37815;52.692;6.226;2023-08-31T21:05:11;18.90;93.00
51739;DHT22;37815;52.692;6.226;2023-08-31T21:10:11;18.80;92.90
51739;DHT22;37815;52.692;6.226;2023-08-31T21:15:12;18.90;92.90
51739;DHT22;37815;52.692;6.226;2023-08-31T21:20:13;18.80;92.90
51739;DHT22;37815;52.692;6.226;2023-08-31T21:25:13;18.80;92.90
51739;DHT22;37815;52.692;6.226;2023-08-31T21:30:14;18.80;92.90
51739;DHT22;37815;52.692;6.226;2023-08-31T21:35:15;18.70;92.90
51739;DHT22;37815;52.692;6.226;2023-08-31T21:40:15;18.70;92.90
51739;DHT22;37815;52.692;6.226;2023-08-31T21:45:16;18.70;92.90
51739;DHT22;37815;52.692;6.226;2023-08-31T21:50:17;18.70;92.90
51739;DHT22;37815;52.692;6.226;2023-08-31T21:55:17;18.60;92.80
51739;DHT22;37815;52.692;6.226;2023-08-31T22:00:18;18.60;92.80
51739;DHT22;37815;52.692;6.226;2023-08-31T22:05:22;18.60;92.90
51739;DHT22;37815;52.692;6.226;2023-08-31T22:10:25;18.60;92.80
51739;DHT22;37815;52.692;6.226;2023-08-31T22:15:26;18.60;92.80
51739;DHT22;37815;52.692;6.226;2023-08-31T22:20:27;18.50;92.80
51739;DHT22;37815;52.692;6.226;2023-08-31T22:25:31;18.60;92.80
51739;DHT22;37815;52.692;6.226;2023-08-31T22:30:31;18.50;92.90
51739;DHT22;37815;52.692;6.226;2023-08-31T22:35:33;18.50;92.90
51739;DHT22;37815;52.692;6.226;2023-08-31T22:40:34;18.50;92.90
51739;DHT22;37815;52.692;6.226;2023-08-31T22:45:34;18.40;92.90
51739;DHT22;37815;52.692;6.226;2023-08-31T22:50:35;18.40;92.90
51739;DHT22;37815;52.692;6.226;2023-08-31T22:55:36;18.40;92.90
51739;DHT22;37815;52.692;6.226;2023-08-31T23:00:36;18.40;92.90
51739;DHT22;37815;52.692;6.226;2023-08-31T23:05:37;18.40;92.90
51739;DHT22;37815;52.692;6.226;2023-08-31T23:10:37;18.40;92.90
51739;DHT22;37815;52.692;6.226;2023-08-31T23:15:38;18.30;92.90
51739;DHT22;37815;52.692;6.226;2023-08-31T23:20:39;18.30;92.90
51739;DHT22;37815;52.692;6.226;2023-08-31T23:25:39;18.30;92.90
51739;DHT22;37815;52.692;6.226;2023-08-31T23:30:40;18.30;92.90
51739;DHT22;37815;52.692;6.226;2023-08-31T23:35:46;18.20;92.90
51739;DHT22;37815;52.692;6.226;2023-08-31T23:40:47;18.30;92.90
51739;DHT22;37815;52.692;6.226;2023-08-31T23:45:47;18.30;92.90
51739;DHT22;37815;52.692;6.226;2023-08-31T23:50:48;18.20;92.90
51739;DHT22;37815;52.692;6.226;2023-08-31T23:55:49;18.20;92.90
